Terminal Aerodrome Forecast
Issued by NWS

Current Version | Previous Version | Graphics & Text | Print | Product List | Glossary On
Versions: 1 2 3 4 5 6 7 8 9 10 11 12 13 14 15 16 17 18 19 20 21 22 23 24 25
000
FTUS41 KRLX 042320
TAFCKB
TAF
KCKB 042320Z 0500/0524 33003KT P6SM SCT250
     FM050500 00000KT 5SM BR SKC
     FM050700 00000KT 2SM BR FEW001 SCT250
     FM050800 00000KT 1/2SM FG BKN001
     FM051200 00000KT 2SM BR BKN002
     FM051300 36002KT 5SM BR SCT002 BKN200
     FM051700 VRB02KT P6SM BKN110=

USA.gov is the U.S. government's official web portal to all federal, state and local government web resources and services.